LGHI

Details ICAO LGHI (JKH)
Name Chios
Region Greece
Timezone Europe/Athens (UTC+3.0)
Plans Departing 42
Arriving 52
Stats Elevation 18 ft / 5 m (AMSL)
Location 38.343175° 26.140575°
Runways 1
Magnetic Variation 4.838° E
Sunrise 2018-06-18 02:52:48 UTC / 2018-06-18 05:52:48 Local
Sunset 2018-06-18 17:42:50 UTC / 2018-06-18 20:42:50 Local
Advertisement - Login to hide

Runways

ID Width Length Bearing (true) Bearing (mag) Surface Threshold Offset Overrun Length
01 98 ft / 30 m 4,966 ft / 1,514 m 9.51° 4.67° Asphalt 393 ft / 120 m 0 ft / 0 m
19 98 ft / 30 m 4,966 ft / 1,514 m 189.51° 184.67° Asphalt 262 ft / 80 m 0 ft / 0 m

Map

Weather


0- 5 10 15 20 25 30 35+ Temperature / ° C

Clouds and Precipitation
Forecast for 2018-06-18 12:00 UTC. Updated 5 hours ago

Ground ~20,000 ft ~40,000 ft Winds

METAR

LGHI 181350Z 05005KT 9999 FEW020 27/19 Q1006

TAF

Not found

Frequencies

Tower 122.70 MHz CHIOS TWR
Warning: Do not use this data for real-world aviation or navigation. No guarantee of current accuracy is given.